sensor_id;sensor_type;location;lat;lon;timestamp;pressure;altitude;pressure_sealevel;temperature;humidity
67842;BME280;54642;59.126;37.876;2024-03-02T00:00:02;101513.81;;;3.06;78.15
67842;BME280;54642;59.126;37.876;2024-03-02T00:02:44;101481.38;;;2.89;78.06
67842;BME280;54642;59.126;37.876;2024-03-02T00:05:12;101493.31;;;2.88;78.12
67842;BME280;54642;59.126;37.876;2024-03-02T00:07:41;101515.19;;;2.99;78.31
67842;BME280;54642;59.126;37.876;2024-03-02T00:10:09;101518.13;;;3.07;78.22
67842;BME280;54642;59.126;37.876;2024-03-02T00:12:39;101531.00;;;3.09;77.99
67842;BME280;54642;59.126;37.876;2024-03-02T00:18:11;101491.97;;;2.78;78.30
67842;BME280;54642;59.126;37.876;2024-03-02T00:20:41;101520.59;;;3.05;78.05
67842;BME280;54642;59.126;37.876;2024-03-02T00:23:08;101502.97;;;2.94;78.15
67842;BME280;54642;59.126;37.876;2024-03-02T00:25:39;101502.88;;;2.92;78.08
67842;BME280;54642;59.126;37.876;2024-03-02T00:28:27;101530.34;;;3.13;77.81
67842;BME280;54642;59.126;37.876;2024-03-02T00:31:06;101501.56;;;3.00;77.73
67842;BME280;54642;59.126;37.876;2024-03-02T00:36:06;101529.13;;;3.22;77.50
67842;BME280;54642;59.126;37.876;2024-03-02T00:38:33;101496.91;;;3.10;77.14
67842;BME280;54642;59.126;37.876;2024-03-02T00:41:04;101515.38;;;3.20;77.11
67842;BME280;54642;59.126;37.876;2024-03-02T00:46:15;101512.88;;;3.22;77.04
67842;BME280;54642;59.126;37.876;2024-03-02T00:48:54;101518.28;;;3.28;76.75
67842;BME280;54642;59.126;37.876;2024-03-02T00:51:24;101499.75;;;3.16;76.82
67842;BME280;54642;59.126;37.876;2024-03-02T00:53:52;101514.84;;;3.28;76.79
67842;BME280;54642;59.126;37.876;2024-03-02T00:56:20;101512.28;;;3.28;76.91
67842;BME280;54642;59.126;37.876;2024-03-02T00:58:46;101508.72;;;3.24;77.01
67842;BME280;54642;59.126;37.876;2024-03-02T01:01:12;101505.66;;;3.15;77.04
67842;BME280;54642;59.126;37.876;2024-03-02T01:03:38;101511.63;;;3.14;77.35
67842;BME280;54642;59.126;37.876;2024-03-02T01:06:04;101515.88;;;3.13;76.98
67842;BME280;54642;59.126;37.876;2024-03-02T01:08:30;101513.06;;;3.09;77.17
67842;BME280;54642;59.126;37.876;2024-03-02T01:10:55;101491.31;;;3.00;77.19
67842;BME280;54642;59.126;37.876;2024-03-02T01:13:22;101510.56;;;2.92;77.26
67842;BME280;54642;59.126;37.876;2024-03-02T01:15:49;101509.03;;;2.96;77.47
67842;BME280;54642;59.126;37.876;2024-03-02T01:18:15;101498.34;;;2.86;77.60
67842;BME280;54642;59.126;37.876;2024-03-02T01:20:41;101511.75;;;2.99;77.37
67842;BME280;54642;59.126;37.876;2024-03-02T01:23:07;101504.06;;;2.99;77.14
67842;BME280;54642;59.126;37.876;2024-03-02T01:25:32;101516.06;;;3.00;77.50
67842;BME280;54642;59.126;37.876;2024-03-02T01:27:58;101513.84;;;2.90;77.35
67842;BME280;54642;59.126;37.876;2024-03-02T01:30:24;101472.56;;;2.65;77.73
67842;BME280;54642;59.126;37.876;2024-03-02T01:32:50;101493.41;;;2.73;77.43
67842;BME280;54642;59.126;37.876;2024-03-02T01:35:16;101491.88;;;2.77;77.77
67842;BME280;54642;59.126;37.876;2024-03-02T01:37:42;101508.59;;;2.86;77.51
67842;BME280;54642;59.126;37.876;2024-03-02T01:40:08;101515.84;;;2.95;77.57
67842;BME280;54642;59.126;37.876;2024-03-02T01:42:38;101523.81;;;3.01;77.33
67842;BME280;54642;59.126;37.876;2024-03-02T01:45:05;101485.22;;;2.80;77.15
67842;BME280;54642;59.126;37.876;2024-03-02T01:47:31;101501.13;;;2.91;76.92
67842;BME280;54642;59.126;37.876;2024-03-02T01:49:58;101520.47;;;3.02;76.95
67842;BME280;54642;59.126;37.876;2024-03-02T01:52:24;101529.19;;;3.06;76.83
67842;BME280;54642;59.126;37.876;2024-03-02T01:54:50;101502.06;;;2.93;76.59
67842;BME280;54642;59.126;37.876;2024-03-02T01:57:16;101526.53;;;3.04;76.67
67842;BME280;54642;59.126;37.876;2024-03-02T01:59:42;101499.38;;;2.90;76.82
67842;BME280;54642;59.126;37.876;2024-03-02T02:02:08;101507.44;;;2.98;76.67
67842;BME280;54642;59.126;37.876;2024-03-02T02:04:34;101505.59;;;2.95;76.70
67842;BME280;54642;59.126;37.876;2024-03-02T02:07:00;101523.16;;;3.05;76.55
67842;BME280;54642;59.126;37.876;2024-03-02T02:09:26;101516.06;;;3.00;76.61
67842;BME280;54642;59.126;37.876;2024-03-02T02:11:52;101523.03;;;3.02;76.58
67842;BME280;54642;59.126;37.876;2024-03-02T02:14:18;101530.94;;;3.07;76.48
67842;BME280;54642;59.126;37.876;2024-03-02T02:16:44;101530.84;;;3.05;76.83
67842;BME280;54642;59.126;37.876;2024-03-02T02:19:09;101508.50;;;2.85;76.72
67842;BME280;54642;59.126;37.876;2024-03-02T02:21:36;101500.50;;;2.79;76.83
67842;BME280;54642;59.126;37.876;2024-03-02T02:24:01;101533.69;;;2.94;77.27
67842;BME280;54642;59.126;37.876;2024-03-02T02:26:29;101498.78;;;2.78;77.11
67842;BME280;54642;59.126;37.876;2024-03-02T02:28:55;101516.03;;;2.82;77.04
67842;BME280;54642;59.126;37.876;2024-03-02T02:31:21;101529.28;;;2.91;77.10
67842;BME280;54642;59.126;37.876;2024-03-02T02:33:46;101528.16;;;2.86;77.00
67842;BME280;54642;59.126;37.876;2024-03-02T02:36:12;101529.66;;;2.81;77.13
67842;BME280;54642;59.126;37.876;2024-03-02T02:38:39;101530.44;;;2.80;77.22
67842;BME280;54642;59.126;37.876;2024-03-02T02:41:06;101510.16;;;2.66;77.28
67842;BME280;54642;59.126;37.876;2024-03-02T02:43:32;101518.28;;;2.76;77.25
67842;BME280;54642;59.126;37.876;2024-03-02T02:45:58;101540.03;;;2.84;77.27
67842;BME280;54642;59.126;37.876;2024-03-02T02:48:23;101534.31;;;2.90;77.42
67842;BME280;54642;59.126;37.876;2024-03-02T02:50:49;101494.22;;;2.72;77.07
67842;BME280;54642;59.126;37.876;2024-03-02T02:53:15;101534.41;;;2.91;77.18
67842;BME280;54642;59.126;37.876;2024-03-02T02:55:40;101532.59;;;2.89;77.16
67842;BME280;54642;59.126;37.876;2024-03-02T02:58:11;101532.59;;;2.89;77.09
67842;BME280;54642;59.126;37.876;2024-03-02T03:00:37;101530.88;;;2.89;76.92
67842;BME280;54642;59.126;37.876;2024-03-02T03:03:03;101526.72;;;2.91;76.93
67842;BME280;54642;59.126;37.876;2024-03-02T03:05:29;101524.03;;;2.88;76.97
67842;BME280;54642;59.126;37.876;2024-03-02T03:07:54;101515.16;;;2.81;76.90
67842;BME280;54642;59.126;37.876;2024-03-02T03:10:20;101530.97;;;2.91;77.09
67842;BME280;54642;59.126;37.876;2024-03-02T03:12:48;101507.47;;;2.81;77.23
67842;BME280;54642;59.126;37.876;2024-03-02T03:15:14;101532.75;;;2.92;77.09
67842;BME280;54642;59.126;37.876;2024-03-02T03:17:42;101513.00;;;2.73;77.19
67842;BME280;54642;59.126;37.876;2024-03-02T03:20:08;101501.16;;;2.75;77.15
67842;BME280;54642;59.126;37.876;2024-03-02T03:22:40;101525.78;;;2.89;77.11
67842;BME280;54642;59.126;37.876;2024-03-02T03:25:06;101510.69;;;2.77;77.06
67842;BME280;54642;59.126;37.876;2024-03-02T03:27:33;101519.94;;;2.75;77.26
67842;BME280;54642;59.126;37.876;2024-03-02T03:29:59;101524.56;;;2.82;77.33
67842;BME280;54642;59.126;37.876;2024-03-02T03:32:25;101526.50;;;2.86;77.26
67842;BME280;54642;59.126;37.876;2024-03-02T03:34:50;101522.34;;;2.89;77.24
67842;BME280;54642;59.126;37.876;2024-03-02T03:37:16;101523.88;;;2.85;76.93
67842;BME280;54642;59.126;37.876;2024-03-02T03:39:42;101525.84;;;2.91;76.90
67842;BME280;54642;59.126;37.876;2024-03-02T03:42:08;101525.59;;;2.86;76.83
67842;BME280;54642;59.126;37.876;2024-03-02T03:44:33;101526.66;;;2.90;76.78
67842;BME280;54642;59.126;37.876;2024-03-02T03:46:59;101514.91;;;2.77;77.24
67842;BME280;54642;59.126;37.876;2024-03-02T03:49:27;101528.34;;;2.89;76.83
67842;BME280;54642;59.126;37.876;2024-03-02T03:51:53;101527.53;;;2.90;76.95
67842;BME280;54642;59.126;37.876;2024-03-02T03:54:19;101515.16;;;2.81;76.86
67842;BME280;54642;59.126;37.876;2024-03-02T03:56:44;101515.16;;;2.81;76.86
67842;BME280;54642;59.126;37.876;2024-03-02T03:59:10;101529.19;;;2.90;76.70
67842;BME280;54642;59.126;37.876;2024-03-02T04:01:37;101530.81;;;2.88;76.71
67842;BME280;54642;59.126;37.876;2024-03-02T04:04:03;101499.44;;;2.74;76.57
67842;BME280;54642;59.126;37.876;2024-03-02T04:06:29;101518.91;;;2.88;76.75
67842;BME280;54642;59.126;37.876;2024-03-02T04:08:55;101467.13;;;2.59;76.37
67842;BME280;54642;59.126;37.876;2024-03-02T04:11:21;101523.38;;;2.92;76.39
67842;BME280;54642;59.126;37.876;2024-03-02T04:13:46;101515.44;;;2.88;76.53
67842;BME280;54642;59.126;37.876;2024-03-02T04:16:12;101521.91;;;2.97;76.58
67842;BME280;54642;59.126;37.876;2024-03-02T04:18:38;101500.66;;;2.82;76.53
67842;BME280;54642;59.126;37.876;2024-03-02T04:21:05;101504.34;;;2.87;76.62
67842;BME280;54642;59.126;37.876;2024-03-02T04:23:31;101515.16;;;2.81;76.45
67842;BME280;54642;59.126;37.876;2024-03-02T04:25:56;101532.47;;;3.03;76.54
67842;BME280;54642;59.126;37.876;2024-03-02T04:28:22;101529.19;;;3.06;76.48
67842;BME280;54642;59.126;37.876;2024-03-02T04:30:48;101532.63;;;3.07;76.09
67842;BME280;54642;59.126;37.876;2024-03-02T04:33:13;101532.63;;;3.07;76.45
67842;BME280;54642;59.126;37.876;2024-03-02T04:35:39;101500.09;;;2.88;76.43
67842;BME280;54642;59.126;37.876;2024-03-02T04:38:05;101503.75;;;2.93;76.43
67842;BME280;54642;59.126;37.876;2024-03-02T04:40:31;101511.69;;;2.97;76.46
67842;BME280;54642;59.126;37.876;2024-03-02T04:42:57;101531.09;;;3.10;76.06
67842;BME280;54642;59.126;37.876;2024-03-02T04:45:24;101512.47;;;2.96;75.93
67842;BME280;54642;59.126;37.876;2024-03-02T04:47:50;101539.34;;;3.04;76.13
67842;BME280;54642;59.126;37.876;2024-03-02T04:50:16;101531.13;;;2.94;76.49
67842;BME280;54642;59.126;37.876;2024-03-02T04:52:42;101535.22;;;2.90;76.57
67842;BME280;54642;59.126;37.876;2024-03-02T04:55:07;101540.63;;;2.96;76.66
67842;BME280;54642;59.126;37.876;2024-03-02T04:57:45;101538.91;;;2.95;76.47
67842;BME280;54642;59.126;37.876;2024-03-02T05:00:12;101541.66;;;3.00;76.48
67842;BME280;54642;59.126;37.876;2024-03-02T05:02:38;101525.59;;;3.02;76.23
67842;BME280;54642;59.126;37.876;2024-03-02T05:05:04;101535.38;;;3.11;76.03
67842;BME280;54642;59.126;37.876;2024-03-02T05:07:30;101538.69;;;3.09;75.70
67842;BME280;54642;59.126;37.876;2024-03-02T05:09:56;101517.66;;;2.98;75.62
67842;BME280;54642;59.126;37.876;2024-03-02T05:12:21;101512.97;;;2.89;75.84
67842;BME280;54642;59.126;37.876;2024-03-02T05:15:06;101515.19;;;2.99;75.91
67842;BME280;54642;59.126;37.876;2024-03-02T05:17:36;101526.16;;;3.15;75.75
67842;BME280;54642;59.126;37.876;2024-03-02T05:20:03;101530.66;;;3.19;75.96
67842;BME280;54642;59.126;37.876;2024-03-02T05:22:29;101519.75;;;3.23;75.96
67842;BME280;54642;59.126;37.876;2024-03-02T05:24:55;101525.31;;;3.32;75.86
67842;BME280;54642;59.126;37.876;2024-03-02T05:27:22;101505.03;;;3.19;75.87
67842;BME280;54642;59.126;37.876;2024-03-02T05:29:47;101528.88;;;3.36;76.03
67842;BME280;54642;59.126;37.876;2024-03-02T05:32:13;101479.94;;;3.12;75.82
67842;BME280;54642;59.126;37.876;2024-03-02T05:34:39;101507.16;;;3.28;75.74
67842;BME280;54642;59.126;37.876;2024-03-02T05:37:06;101529.13;;;3.40;75.49
67842;BME280;54642;59.126;37.876;2024-03-02T05:39:31;101521.53;;;3.42;75.18
67842;BME280;54642;59.126;37.876;2024-03-02T05:41:57;101496.91;;;3.28;75.39
67842;BME280;54642;59.126;37.876;2024-03-02T05:44:23;101529.13;;;3.40;75.35
67842;BME280;54642;59.126;37.876;2024-03-02T05:46:48;101528.19;;;3.38;75.45
67842;BME280;54642;59.126;37.876;2024-03-02T05:49:14;101496.09;;;3.29;75.32
67842;BME280;54642;59.126;37.876;2024-03-02T05:51:40;101511.84;;;3.36;75.16
67842;BME280;54642;59.126;37.876;2024-03-02T05:54:07;101529.28;;;3.43;75.09
67842;BME280;54642;59.126;37.876;2024-03-02T05:56:32;101519.47;;;3.35;75.39
67842;BME280;54642;59.126;37.876;2024-03-02T05:58:58;101539.22;;;3.37;75.31
67842;BME280;54642;59.126;37.876;2024-03-02T06:01:45;101538.56;;;3.41;75.18
67842;BME280;54642;59.126;37.876;2024-03-02T06:04:16;101512.50;;;3.32;75.22
67842;BME280;54642;59.126;37.876;2024-03-02T06:06:42;101532.13;;;3.50;75.16
67842;BME280;54642;59.126;37.876;2024-03-02T06:09:08;101539.88;;;3.51;74.92
67842;BME280;54642;59.126;37.876;2024-03-02T06:11:35;101535.63;;;3.52;75.26
67842;BME280;54642;59.126;37.876;2024-03-02T06:14:02;101546.13;;;3.56;74.58
67842;BME280;54642;59.126;37.876;2024-03-02T06:16:28;101551.44;;;3.61;74.66
67842;BME280;54642;59.126;37.876;2024-03-02T06:18:53;101551.25;;;3.56;74.50
67842;BME280;54642;59.126;37.876;2024-03-02T06:21:20;101530.88;;;3.41;74.58
67842;BME280;54642;59.126;37.876;2024-03-02T06:23:46;101549.63;;;3.58;74.46
67842;BME280;54642;59.126;37.876;2024-03-02T06:26:12;101538.19;;;3.52;74.60
67842;BME280;54642;59.126;37.876;2024-03-02T06:28:37;101559.50;;;3.69;74.49
67842;BME280;54642;59.126;37.876;2024-03-02T06:31:04;101539.97;;;3.53;74.59
67842;BME280;54642;59.126;37.876;2024-03-02T06:33:30;101546.97;;;3.57;74.39
67842;BME280;54642;59.126;37.876;2024-03-02T06:35:55;101563.03;;;3.71;74.51
67842;BME280;54642;59.126;37.876;2024-03-02T06:38:21;101560.38;;;3.69;74.33
67842;BME280;54642;59.126;37.876;2024-03-02T06:40:47;101561.34;;;3.71;74.47
67842;BME280;54642;59.126;37.876;2024-03-02T06:43:12;101546.22;;;3.59;74.43
67842;BME280;54642;59.126;37.876;2024-03-02T06:45:38;101563.19;;;3.74;74.60
67842;BME280;54642;59.126;37.876;2024-03-02T06:48:04;101552.69;;;3.69;74.43
67842;BME280;54642;59.126;37.876;2024-03-02T06:50:30;101533.22;;;3.55;74.28
67842;BME280;54642;59.126;37.876;2024-03-02T06:52:56;101574.66;;;3.82;74.22
67842;BME280;54642;59.126;37.876;2024-03-02T06:55:22;101571.06;;;3.78;74.21
67842;BME280;54642;59.126;37.876;2024-03-02T06:57:50;101565.88;;;3.77;73.98
67842;BME280;54642;59.126;37.876;2024-03-02T07:00:16;101569.53;;;3.82;73.97
67842;BME280;54642;59.126;37.876;2024-03-02T07:02:44;101569.84;;;3.88;73.76
67842;BME280;54642;59.126;37.876;2024-03-02T07:05:10;101569.22;;;3.94;73.88
67842;BME280;54642;59.126;37.876;2024-03-02T07:07:37;101549.88;;;3.82;73.87
67842;BME280;54642;59.126;37.876;2024-03-02T07:10:04;101563.56;;;4.01;73.98
67842;BME280;54642;59.126;37.876;2024-03-02T07:12:30;101575.66;;;4.04;73.17
67842;BME280;54642;59.126;37.876;2024-03-02T07:14:57;101550.72;;;3.81;73.17
67842;BME280;54642;59.126;37.876;2024-03-02T07:17:30;101561.97;;;3.85;73.22
67842;BME280;54642;59.126;37.876;2024-03-02T07:19:57;101586.50;;;3.98;73.34
67842;BME280;54642;59.126;37.876;2024-03-02T07:22:23;101585.03;;;4.03;72.98
67842;BME280;54642;59.126;37.876;2024-03-02T07:24:49;101562.31;;;3.93;73.03
67842;BME280;54642;59.126;37.876;2024-03-02T07:27:15;101588.56;;;4.05;73.00
67842;BME280;54642;59.126;37.876;2024-03-02T07:29:41;101575.38;;;3.97;73.01
67842;BME280;54642;59.126;37.876;2024-03-02T07:32:08;101590.09;;;4.01;72.60
67842;BME280;54642;59.126;37.876;2024-03-02T07:34:34;101594.34;;;4.01;72.58
67842;BME280;54642;59.126;37.876;2024-03-02T07:37:00;101569.06;;;3.91;72.37
67842;BME280;54642;59.126;37.876;2024-03-02T07:39:26;101554.88;;;3.79;72.14
67842;BME280;54642;59.126;37.876;2024-03-02T07:41:53;101577.72;;;3.93;72.29
67842;BME280;54642;59.126;37.876;2024-03-02T07:44:19;101583.28;;;4.02;71.83
67842;BME280;54642;59.126;37.876;2024-03-02T07:46:46;101599.09;;;4.11;72.03
67842;BME280;54642;59.126;37.876;2024-03-02T07:49:13;101567.31;;;3.90;71.67
67842;BME280;54642;59.126;37.876;2024-03-02T07:51:39;101600.63;;;4.08;71.67
67842;BME280;54642;59.126;37.876;2024-03-02T07:54:05;101598.13;;;4.09;71.88
67842;BME280;54642;59.126;37.876;2024-03-02T07:56:31;101582.69;;;3.90;71.89
67842;BME280;54642;59.126;37.876;2024-03-02T07:58:57;101605.34;;;3.98;71.46
67842;BME280;54642;59.126;37.876;2024-03-02T08:01:30;101608.31;;;3.88;71.15
67842;BME280;54642;59.126;37.876;2024-03-02T08:04:00;101611.56;;;3.86;71.72
67842;BME280;54642;59.126;37.876;2024-03-02T08:06:27;101613.56;;;3.91;71.89
67842;BME280;54642;59.126;37.876;2024-03-02T08:08:54;101589.25;;;3.83;71.74
67842;BME280;54642;59.126;37.876;2024-03-02T08:11:21;101594.44;;;3.85;71.32
67842;BME280;54642;59.126;37.876;2024-03-02T08:13:47;101599.69;;;3.88;71.50
67842;BME280;54642;59.126;37.876;2024-03-02T08:16:14;101592.59;;;3.82;71.47
67842;BME280;54642;59.126;37.876;2024-03-02T08:18:41;101606.53;;;3.87;71.06
67842;BME280;54642;59.126;37.876;2024-03-02T08:21:07;101616.88;;;3.89;71.16
67842;BME280;54642;59.126;37.876;2024-03-02T08:23:34;101612.59;;;3.89;71.26
67842;BME280;54642;59.126;37.876;2024-03-02T08:26:00;101603.97;;;3.87;71.24
67842;BME280;54642;59.126;37.876;2024-03-02T08:28:26;101608.66;;;3.96;71.29
67842;BME280;54642;59.126;37.876;2024-03-02T08:30:52;101614.94;;;4.03;71.31
67842;BME280;54642;59.126;37.876;2024-03-02T08:33:18;101594.22;;;3.98;71.42
67842;BME280;54642;59.126;37.876;2024-03-02T08:35:44;101607.97;;;4.00;71.27
67842;BME280;54642;59.126;37.876;2024-03-02T08:38:10;101602.78;;;3.98;71.34
67842;BME280;54642;59.126;37.876;2024-03-02T08:40:36;101591.22;;;3.89;71.34
67842;BME280;54642;59.126;37.876;2024-03-02T08:43:01;101591.38;;;3.92;71.39
67842;BME280;54642;59.126;37.876;2024-03-02T08:45:27;101602.06;;;4.01;71.34
67842;BME280;54642;59.126;37.876;2024-03-02T08:47:53;101612.66;;;4.09;71.18
67842;BME280;54642;59.126;37.876;2024-03-02T08:50:19;101610.09;;;4.09;71.06
67842;BME280;54642;59.126;37.876;2024-03-02T08:52:45;101602.47;;;4.10;71.12
67842;BME280;54642;59.126;37.876;2024-03-02T08:55:10;101610.59;;;4.19;71.45
67842;BME280;54642;59.126;37.876;2024-03-02T08:57:37;101588.41;;;4.02;70.92
67842;BME280;54642;59.126;37.876;2024-03-02T09:00:03;101607.53;;;4.09;70.92
67842;BME280;54642;59.126;37.876;2024-03-02T09:02:31;101613.53;;;4.09;70.87
67842;BME280;54642;59.126;37.876;2024-03-02T09:04:57;101577.44;;;3.87;71.11
67842;BME280;54642;59.126;37.876;2024-03-02T09:07:23;101597.03;;;4.04;70.62
67842;BME280;54642;59.126;37.876;2024-03-02T09:09:49;101602.63;;;4.13;70.80
67842;BME280;54642;59.126;37.876;2024-03-02T09:12:15;101603.91;;;4.23;70.83
67842;BME280;54642;59.126;37.876;2024-03-02T09:14:41;101585.47;;;4.12;70.63
67842;BME280;54642;59.126;37.876;2024-03-02T09:17:07;101584.69;;;4.15;70.52
67842;BME280;54642;59.126;37.876;2024-03-02T09:19:36;101594.59;;;4.25;70.34
67842;BME280;54642;59.126;37.876;2024-03-02T09:22:02;101598.31;;;4.32;69.95
67842;BME280;54642;59.126;37.876;2024-03-02T09:24:28;101586.50;;;4.35;69.84
67842;BME280;54642;59.126;37.876;2024-03-02T09:26:54;101572.66;;;4.32;69.59
67842;BME280;54642;59.126;37.876;2024-03-02T09:29:20;101601.78;;;4.52;69.57
67842;BME280;54642;59.126;37.876;2024-03-02T09:31:46;101568.94;;;4.45;69.68
67842;BME280;54642;59.126;37.876;2024-03-02T09:34:12;101594.28;;;4.56;69.86
67842;BME280;54642;59.126;37.876;2024-03-02T09:36:37;101591.97;;;4.43;69.93
67842;BME280;54642;59.126;37.876;2024-03-02T09:39:03;101581.09;;;4.29;69.55
67842;BME280;54642;59.126;37.876;2024-03-02T09:41:29;101590.84;;;4.36;69.88
67842;BME280;54642;59.126;37.876;2024-03-02T09:43:55;101575.91;;;4.28;69.92
67842;BME280;54642;59.126;37.876;2024-03-02T09:46:21;101579.81;;;4.39;69.24
67842;BME280;54642;59.126;37.876;2024-03-02T09:48:47;101599.97;;;4.49;69.56
67842;BME280;54642;59.126;37.876;2024-03-02T09:51:13;101590.50;;;4.48;69.76
67842;BME280;54642;59.126;37.876;2024-03-02T09:53:40;101598.88;;;4.44;69.67
67842;BME280;54642;59.126;37.876;2024-03-02T09:56:06;101566.75;;;4.34;69.64
67842;BME280;54642;59.126;37.876;2024-03-02T09:58:31;101578.03;;;4.38;69.19
67842;BME280;54642;59.126;37.876;2024-03-02T10:00:57;101557.94;;;4.28;68.99
67842;BME280;54642;59.126;37.876;2024-03-02T10:03:23;101581.44;;;4.37;69.19
67842;BME280;54642;59.126;37.876;2024-03-02T10:05:52;101563.25;;;4.32;68.90
67842;BME280;54642;59.126;37.876;2024-03-02T10:08:18;101579.22;;;4.45;68.84
67842;BME280;54642;59.126;37.876;2024-03-02T10:10:44;101582.94;;;4.51;68.71
67842;BME280;54642;59.126;37.876;2024-03-02T10:13:11;101577.78;;;4.51;68.71
67842;BME280;54642;59.126;37.876;2024-03-02T10:15:39;101572.66;;;4.51;68.89
67842;BME280;54642;59.126;37.876;2024-03-02T10:18:11;101586.50;;;4.55;68.72
67842;BME280;54642;59.126;37.876;2024-03-02T10:20:39;101575.31;;;4.53;68.48
67842;BME280;54642;59.126;37.876;2024-03-02T10:23:13;101582.88;;;4.50;68.08
67842;BME280;54642;59.126;37.876;2024-03-02T10:25:39;101583.66;;;4.49;68.31
67842;BME280;54642;59.126;37.876;2024-03-02T10:28:05;101582.72;;;4.47;68.26
67842;BME280;54642;59.126;37.876;2024-03-02T10:30:35;101582.72;;;4.47;68.39
67842;BME280;54642;59.126;37.876;2024-03-02T10:33:02;101578.59;;;4.50;68.42
67842;BME280;54642;59.126;37.876;2024-03-02T10:35:29;101580.38;;;4.51;68.20
67842;BME280;54642;59.126;37.876;2024-03-02T10:37:58;101549.47;;;4.30;68.19
67842;BME280;54642;59.126;37.876;2024-03-02T10:40:26;101590.34;;;4.45;67.90
67842;BME280;54642;59.126;37.876;2024-03-02T10:42:52;101578.13;;;4.39;67.90
67842;BME280;54642;59.126;37.876;2024-03-02T10:45:20;101570.16;;;4.33;67.78
67842;BME280;54642;59.126;37.876;2024-03-02T10:47:49;101575.63;;;4.41;68.07
67842;BME280;54642;59.126;37.876;2024-03-02T10:50:16;101594.22;;;4.55;67.82
67842;BME280;54642;59.126;37.876;2024-03-02T10:52:41;101590.72;;;4.53;67.81
67842;BME280;54642;59.126;37.876;2024-03-02T10:55:09;101576.72;;;4.46;67.52
67842;BME280;54642;59.126;37.876;2024-03-02T11:00:12;101589.16;;;4.56;67.37
67842;BME280;54642;59.126;37.876;2024-03-02T11:02:50;101573.75;;;4.56;67.26
67842;BME280;54642;59.126;37.876;2024-03-02T11:05:26;101552.38;;;4.38;67.33
67842;BME280;54642;59.126;37.876;2024-03-02T11:08:00;101577.47;;;4.44;67.87
67842;BME280;54642;59.126;37.876;2024-03-02T11:10:33;101589.88;;;4.54;67.88
67842;BME280;54642;59.126;37.876;2024-03-02T11:13:02;101588.75;;;4.47;68.39
67842;BME280;54642;59.126;37.876;2024-03-02T11:15:31;101574.22;;;4.48;68.00
67842;BME280;54642;59.126;37.876;2024-03-02T11:18:01;101603.81;;;4.59;68.01
67842;BME280;54642;59.126;37.876;2024-03-02T11:20:28;101590.88;;;4.57;68.11
67842;BME280;54642;59.126;37.876;2024-03-02T11:22:55;101574.28;;;4.49;67.48
67842;BME280;54642;59.126;37.876;2024-03-02T11:25:28;101594.53;;;4.63;67.65
67842;BME280;54642;59.126;37.876;2024-03-02T11:33:01;101567.06;;;4.41;67.30
67842;BME280;54642;59.126;37.876;2024-03-02T11:35:37;101606.66;;;4.46;67.56
67842;BME280;54642;59.126;37.876;2024-03-02T11:38:03;101598.91;;;4.26;67.87
67842;BME280;54642;59.126;37.876;2024-03-02T11:40:30;101573.84;;;4.01;68.05
67842;BME280;54642;59.126;37.876;2024-03-02T11:42:56;101598.88;;;4.07;68.26
67842;BME280;54642;59.126;37.876;2024-03-02T11:45:23;101603.94;;;4.05;68.28
67842;BME280;54642;59.126;37.876;2024-03-02T11:47:57;101589.00;;;3.96;68.31
67842;BME280;54642;59.126;37.876;2024-03-02T11:50:39;101600.28;;;4.00;68.13
67842;BME280;54642;59.126;37.876;2024-03-02T11:53:07;101576.78;;;3.91;68.25
67842;BME280;54642;59.126;37.876;2024-03-02T11:55:37;101593.53;;;4.02;68.06
67842;BME280;54642;59.126;37.876;2024-03-02T11:58:04;101574.06;;;3.88;68.26
67842;BME280;54642;59.126;37.876;2024-03-02T12:00:30;101591.28;;;3.90;68.22
67842;BME280;54642;59.126;37.876;2024-03-02T12:03:04;101579.84;;;3.84;68.19
67842;BME280;54642;59.126;37.876;2024-03-02T12:05:31;101608.66;;;3.96;68.52
67842;BME280;54642;59.126;37.876;2024-03-02T12:07:58;101592.69;;;3.84;68.72
67842;BME280;54642;59.126;37.876;2024-03-02T12:10:25;101591.22;;;3.89;68.51
67842;BME280;54642;59.126;37.876;2024-03-02T12:13:02;101607.97;;;4.00;68.21
67842;BME280;54642;59.126;37.876;2024-03-02T12:15:36;101577.38;;;3.85;68.30
67842;BME280;54642;59.126;37.876;2024-03-02T12:18:05;101600.00;;;3.94;68.35
67842;BME280;54642;59.126;37.876;2024-03-02T12:20:32;101608.41;;;3.91;68.62
67842;BME280;54642;59.126;37.876;2024-03-02T12:22:59;101592.34;;;3.76;68.60
67842;BME280;54642;59.126;37.876;2024-03-02T12:25:26;101604.75;;;3.86;68.75
67842;BME280;54642;59.126;37.876;2024-03-02T12:27:57;101604.63;;;3.83;68.51
67842;BME280;54642;59.126;37.876;2024-03-02T12:30:24;101600.22;;;3.80;68.83
67842;BME280;54642;59.126;37.876;2024-03-02T12:32:50;101595.91;;;3.79;68.64
67842;BME280;54642;59.126;37.876;2024-03-02T12:35:17;101585.34;;;3.73;68.51
67842;BME280;54642;59.126;37.876;2024-03-02T12:37:44;101597.03;;;3.85;68.44
67842;BME280;54642;59.126;37.876;2024-03-02T12:40:11;101602.16;;;3.85;68.59
67842;BME280;54642;59.126;37.876;2024-03-02T12:42:38;101597.31;;;3.73;68.53
67842;BME280;54642;59.126;37.876;2024-03-02T12:45:08;101601.84;;;3.78;68.54
67842;BME280;54642;59.126;37.876;2024-03-02T12:47:35;101599.94;;;3.74;68.38
67842;BME280;54642;59.126;37.876;2024-03-02T12:50:01;101606.53;;;3.69;68.59
67842;BME280;54642;59.126;37.876;2024-03-02T12:52:28;101592.97;;;3.72;68.74
67842;BME280;54642;59.126;37.876;2024-03-02T12:54:54;101595.59;;;3.73;68.41
67842;BME280;54642;59.126;37.876;2024-03-02T12:57:27;101598.16;;;3.73;68.01
67842;BME280;54642;59.126;37.876;2024-03-02T13:00:01;101588.44;;;3.66;68.14
67842;BME280;54642;59.126;37.876;2024-03-02T13:02:28;101605.78;;;3.72;68.15
67842;BME280;54642;59.126;37.876;2024-03-02T13:04:55;101607.03;;;3.62;68.28